sensor_id;sensor_type;location;lat;lon;timestamp;P1;durP1;ratioP1;P2;durP2;ratioP2
23682;SDS011;24897;53.514;10.482;2022-09-27T00:02:04;122.77;;;112.37;;
23682;SDS011;24897;53.514;10.482;2022-09-27T00:04:48;122.43;;;112.20;;
23682;SDS011;24897;53.514;10.482;2022-09-27T00:07:34;126.50;;;115.83;;
23682;SDS011;24897;53.514;10.482;2022-09-27T00:10:18;117.87;;;107.97;;
23682;SDS011;24897;53.514;10.482;2022-09-27T00:13:02;115.73;;;106.27;;
23682;SDS011;24897;53.514;10.482;2022-09-27T00:15:46;127.50;;;116.63;;
23682;SDS011;24897;53.514;10.482;2022-09-27T00:18:31;120.60;;;110.07;;
23682;SDS011;24897;53.514;10.482;2022-09-27T00:21:16;122.10;;;111.80;;
23682;SDS011;24897;53.514;10.482;2022-09-27T00:24:00;108.40;;;99.30;;
23682;SDS011;24897;53.514;10.482;2022-09-27T00:26:46;105.30;;;96.20;;
23682;SDS011;24897;53.514;10.482;2022-09-27T00:29:31;106.17;;;97.07;;
23682;SDS011;24897;53.514;10.482;2022-09-27T00:32:15;109.13;;;99.90;;
23682;SDS011;24897;53.514;10.482;2022-09-27T00:35:00;107.77;;;98.97;;
23682;SDS011;24897;53.514;10.482;2022-09-27T00:37:46;104.00;;;95.37;;
23682;SDS011;24897;53.514;10.482;2022-09-27T00:40:31;109.17;;;99.77;;
23682;SDS011;24897;53.514;10.482;2022-09-27T00:43:20;109.30;;;99.77;;
23682;SDS011;24897;53.514;10.482;2022-09-27T00:46:06;112.67;;;103.07;;
23682;SDS011;24897;53.514;10.482;2022-09-27T00:48:58;102.87;;;94.43;;
23682;SDS011;24897;53.514;10.482;2022-09-27T00:51:52;106.30;;;97.70;;
23682;SDS011;24897;53.514;10.482;2022-09-27T00:54:43;101.80;;;93.30;;
23682;SDS011;24897;53.514;10.482;2022-09-27T00:57:30;112.50;;;103.00;;
23682;SDS011;24897;53.514;10.482;2022-09-27T01:00:15;108.37;;;99.17;;
23682;SDS011;24897;53.514;10.482;2022-09-27T01:03:00;115.60;;;105.67;;
23682;SDS011;24897;53.514;10.482;2022-09-27T01:05:48;111.03;;;101.40;;
23682;SDS011;24897;53.514;10.482;2022-09-27T01:08:33;107.97;;;98.17;;
23682;SDS011;24897;53.514;10.482;2022-09-27T01:20:23;93.37;;;85.47;;
23682;SDS011;24897;53.514;10.482;2022-09-27T01:40:56;90.53;;;83.03;;
23682;SDS011;24897;53.514;10.482;2022-09-27T01:43:47;96.60;;;88.30;;
23682;SDS011;24897;53.514;10.482;2022-09-27T01:46:39;99.53;;;90.53;;
23682;SDS011;24897;53.514;10.482;2022-09-27T01:49:38;105.97;;;96.40;;
23682;SDS011;24897;53.514;10.482;2022-09-27T01:52:35;93.67;;;85.67;;
23682;SDS011;24897;53.514;10.482;2022-09-27T01:55:31;94.97;;;86.47;;
23682;SDS011;24897;53.514;10.482;2022-09-27T01:58:21;95.30;;;86.37;;
23682;SDS011;24897;53.514;10.482;2022-09-27T02:01:11;101.50;;;92.53;;
23682;SDS011;24897;53.514;10.482;2022-09-27T02:03:58;103.80;;;94.80;;
23682;SDS011;24897;53.514;10.482;2022-09-27T02:06:45;101.87;;;92.60;;
23682;SDS011;24897;53.514;10.482;2022-09-27T02:09:39;94.23;;;85.93;;
23682;SDS011;24897;53.514;10.482;2022-09-27T02:12:32;99.23;;;90.00;;
23682;SDS011;24897;53.514;10.482;2022-09-27T02:15:22;94.73;;;86.47;;
23682;SDS011;24897;53.514;10.482;2022-09-27T02:18:12;90.47;;;82.43;;
23682;SDS011;24897;53.514;10.482;2022-09-27T02:21:02;95.23;;;86.80;;
23682;SDS011;24897;53.514;10.482;2022-09-27T02:23:51;98.50;;;89.53;;
23682;SDS011;24897;53.514;10.482;2022-09-27T02:26:42;93.97;;;85.73;;
23682;SDS011;24897;53.514;10.482;2022-09-27T02:29:33;89.30;;;81.70;;
23682;SDS011;24897;53.514;10.482;2022-09-27T02:32:24;101.07;;;91.40;;
23682;SDS011;24897;53.514;10.482;2022-09-27T02:35:13;101.30;;;91.43;;
23682;SDS011;24897;53.514;10.482;2022-09-27T02:38:04;90.23;;;81.73;;
23682;SDS011;24897;53.514;10.482;2022-09-27T02:40:49;87.20;;;79.33;;
23682;SDS011;24897;53.514;10.482;2022-09-27T02:43:34;85.87;;;78.37;;
23682;SDS011;24897;53.514;10.482;2022-09-27T02:55:02;93.90;;;85.20;;
23682;SDS011;24897;53.514;10.482;2022-09-27T03:00:41;89.23;;;81.13;;
23682;SDS011;24897;53.514;10.482;2022-09-27T03:03:32;86.60;;;79.10;;
23682;SDS011;24897;53.514;10.482;2022-09-27T03:06:24;84.37;;;76.90;;
23682;SDS011;24897;53.514;10.482;2022-09-27T03:09:18;85.73;;;78.23;;
23682;SDS011;24897;53.514;10.482;2022-09-27T03:12:04;85.73;;;78.03;;
23682;SDS011;24897;53.514;10.482;2022-09-27T03:14:49;92.40;;;84.53;;
23682;SDS011;24897;53.514;10.482;2022-09-27T03:17:33;89.67;;;82.07;;
23682;SDS011;24897;53.514;10.482;2022-09-27T03:20:17;94.57;;;85.93;;
23682;SDS011;24897;53.514;10.482;2022-09-27T03:23:02;93.13;;;84.43;;
23682;SDS011;24897;53.514;10.482;2022-09-27T03:25:46;87.67;;;79.67;;
23682;SDS011;24897;53.514;10.482;2022-09-27T03:28:31;93.13;;;85.13;;
23682;SDS011;24897;53.514;10.482;2022-09-27T03:31:15;93.30;;;85.00;;
23682;SDS011;24897;53.514;10.482;2022-09-27T03:33:59;96.63;;;88.33;;
23682;SDS011;24897;53.514;10.482;2022-09-27T03:36:43;91.97;;;83.97;;
23682;SDS011;24897;53.514;10.482;2022-09-27T03:39:28;90.77;;;82.90;;
23682;SDS011;24897;53.514;10.482;2022-09-27T03:42:12;97.93;;;88.63;;
23682;SDS011;24897;53.514;10.482;2022-09-27T03:44:56;95.17;;;86.77;;
23682;SDS011;24897;53.514;10.482;2022-09-27T03:47:40;103.50;;;94.20;;
23682;SDS011;24897;53.514;10.482;2022-09-27T03:50:24;98.27;;;89.67;;
23682;SDS011;24897;53.514;10.482;2022-09-27T03:53:08;95.30;;;86.43;;
23682;SDS011;24897;53.514;10.482;2022-09-27T03:55:52;97.10;;;88.23;;
23682;SDS011;24897;53.514;10.482;2022-09-27T03:58:37;100.53;;;90.50;;
23682;SDS011;24897;53.514;10.482;2022-09-27T04:01:20;96.90;;;88.07;;
23682;SDS011;24897;53.514;10.482;2022-09-27T04:04:04;99.00;;;90.53;;
23682;SDS011;24897;53.514;10.482;2022-09-27T04:06:49;90.67;;;82.67;;
23682;SDS011;24897;53.514;10.482;2022-09-27T04:09:33;83.97;;;76.47;;
23682;SDS011;24897;53.514;10.482;2022-09-27T04:12:17;83.93;;;76.13;;
23682;SDS011;24897;53.514;10.482;2022-09-27T04:15:05;79.73;;;72.33;;
23682;SDS011;24897;53.514;10.482;2022-09-27T04:17:51;82.17;;;74.63;;
23682;SDS011;24897;53.514;10.482;2022-09-27T04:20:35;77.87;;;70.77;;
23682;SDS011;24897;53.514;10.482;2022-09-27T04:23:19;82.57;;;74.80;;
23682;SDS011;24897;53.514;10.482;2022-09-27T04:26:03;80.60;;;73.40;;
23682;SDS011;24897;53.514;10.482;2022-09-27T04:28:48;81.60;;;74.30;;
23682;SDS011;24897;53.514;10.482;2022-09-27T04:31:34;96.37;;;86.77;;
23682;SDS011;24897;53.514;10.482;2022-09-27T04:34:20;93.43;;;84.23;;
23682;SDS011;24897;53.514;10.482;2022-09-27T04:37:25;89.40;;;80.90;;
23682;SDS011;24897;53.514;10.482;2022-09-27T04:40:10;88.10;;;80.13;;
23682;SDS011;24897;53.514;10.482;2022-09-27T04:42:54;90.90;;;81.70;;
23682;SDS011;24897;53.514;10.482;2022-09-27T04:45:39;77.13;;;69.97;;
23682;SDS011;24897;53.514;10.482;2022-09-27T04:48:24;82.17;;;74.40;;
23682;SDS011;24897;53.514;10.482;2022-09-27T04:51:09;77.80;;;70.63;;
23682;SDS011;24897;53.514;10.482;2022-09-27T04:53:55;77.77;;;70.67;;
23682;SDS011;24897;53.514;10.482;2022-09-27T04:56:40;79.90;;;72.23;;
23682;SDS011;24897;53.514;10.482;2022-09-27T04:59:24;81.77;;;73.73;;
23682;SDS011;24897;53.514;10.482;2022-09-27T05:02:10;79.00;;;71.60;;
23682;SDS011;24897;53.514;10.482;2022-09-27T05:04:54;80.43;;;72.47;;
23682;SDS011;24897;53.514;10.482;2022-09-27T05:07:41;84.07;;;75.80;;
23682;SDS011;24897;53.514;10.482;2022-09-27T05:10:26;86.67;;;77.60;;
23682;SDS011;24897;53.514;10.482;2022-09-27T05:13:10;84.37;;;75.17;;
23682;SDS011;24897;53.514;10.482;2022-09-27T05:16:00;79.63;;;71.47;;
23682;SDS011;24897;53.514;10.482;2022-09-27T05:18:46;77.47;;;69.23;;
23682;SDS011;24897;53.514;10.482;2022-09-27T05:21:31;78.77;;;71.13;;
23682;SDS011;24897;53.514;10.482;2022-09-27T05:24:16;75.73;;;68.63;;
23682;SDS011;24897;53.514;10.482;2022-09-27T05:27:00;77.07;;;68.83;;
23682;SDS011;24897;53.514;10.482;2022-09-27T05:29:46;75.27;;;67.47;;
23682;SDS011;24897;53.514;10.482;2022-09-27T05:32:30;70.27;;;63.40;;
23682;SDS011;24897;53.514;10.482;2022-09-27T05:35:15;85.30;;;69.90;;
23682;SDS011;24897;53.514;10.482;2022-09-27T05:38:04;65.60;;;59.03;;
23682;SDS011;24897;53.514;10.482;2022-09-27T05:40:50;70.23;;;62.77;;
23682;SDS011;24897;53.514;10.482;2022-09-27T05:43:34;70.47;;;62.80;;
23682;SDS011;24897;53.514;10.482;2022-09-27T05:46:19;75.80;;;63.87;;
23682;SDS011;24897;53.514;10.482;2022-09-27T05:49:04;70.83;;;62.67;;
23682;SDS011;24897;53.514;10.482;2022-09-27T05:51:48;66.80;;;60.10;;
23682;SDS011;24897;53.514;10.482;2022-09-27T05:54:32;62.10;;;55.60;;
23682;SDS011;24897;53.514;10.482;2022-09-27T05:57:17;74.07;;;61.23;;
23682;SDS011;24897;53.514;10.482;2022-09-27T06:00:02;69.00;;;58.97;;
23682;SDS011;24897;53.514;10.482;2022-09-27T06:02:57;60.00;;;53.47;;
23682;SDS011;24897;53.514;10.482;2022-09-27T06:05:42;64.73;;;54.80;;
23682;SDS011;24897;53.514;10.482;2022-09-27T06:08:27;62.70;;;54.50;;
23682;SDS011;24897;53.514;10.482;2022-09-27T06:11:11;67.80;;;57.07;;
23682;SDS011;24897;53.514;10.482;2022-09-27T06:13:56;65.57;;;55.03;;
23682;SDS011;24897;53.514;10.482;2022-09-27T06:16:41;62.53;;;54.30;;
23682;SDS011;24897;53.514;10.482;2022-09-27T06:19:25;63.80;;;53.80;;
23682;SDS011;24897;53.514;10.482;2022-09-27T06:22:10;60.00;;;53.67;;
23682;SDS011;24897;53.514;10.482;2022-09-27T06:24:54;64.33;;;53.93;;
23682;SDS011;24897;53.514;10.482;2022-09-27T06:27:42;58.40;;;52.10;;
23682;SDS011;24897;53.514;10.482;2022-09-27T06:30:27;67.40;;;55.00;;
23682;SDS011;24897;53.514;10.482;2022-09-27T06:33:13;68.80;;;54.83;;
23682;SDS011;24897;53.514;10.482;2022-09-27T06:36:05;68.30;;;55.40;;
23682;SDS011;24897;53.514;10.482;2022-09-27T06:38:50;76.30;;;58.23;;
23682;SDS011;24897;53.514;10.482;2022-09-27T06:41:35;78.83;;;59.20;;
23682;SDS011;24897;53.514;10.482;2022-09-27T06:44:20;87.60;;;59.57;;
23682;SDS011;24897;53.514;10.482;2022-09-27T06:47:06;75.63;;;56.83;;
23682;SDS011;24897;53.514;10.482;2022-09-27T06:49:50;73.00;;;56.20;;
23682;SDS011;24897;53.514;10.482;2022-09-27T06:52:34;76.50;;;58.43;;
23682;SDS011;24897;53.514;10.482;2022-09-27T06:55:19;74.80;;;56.13;;
23682;SDS011;24897;53.514;10.482;2022-09-27T06:58:08;81.73;;;57.60;;
23682;SDS011;24897;53.514;10.482;2022-09-27T07:01:12;83.03;;;61.67;;
23682;SDS011;24897;53.514;10.482;2022-09-27T07:03:57;87.47;;;64.23;;
23682;SDS011;24897;53.514;10.482;2022-09-27T07:06:42;84.57;;;67.00;;
23682;SDS011;24897;53.514;10.482;2022-09-27T07:09:26;89.07;;;65.43;;
23682;SDS011;24897;53.514;10.482;2022-09-27T07:12:10;85.33;;;61.57;;
23682;SDS011;24897;53.514;10.482;2022-09-27T07:14:56;81.93;;;59.70;;
23682;SDS011;24897;53.514;10.482;2022-09-27T07:17:41;75.63;;;50.10;;
23682;SDS011;24897;53.514;10.482;2022-09-27T07:20:25;64.30;;;47.40;;
23682;SDS011;24897;53.514;10.482;2022-09-27T07:23:11;62.47;;;48.33;;
23682;SDS011;24897;53.514;10.482;2022-09-27T07:25:59;63.53;;;48.03;;
23682;SDS011;24897;53.514;10.482;2022-09-27T07:28:46;58.27;;;47.13;;
23682;SDS011;24897;53.514;10.482;2022-09-27T07:31:31;62.43;;;46.43;;
23682;SDS011;24897;53.514;10.482;2022-09-27T07:34:16;60.53;;;46.47;;
23682;SDS011;24897;53.514;10.482;2022-09-27T07:37:02;59.57;;;45.60;;
23682;SDS011;24897;53.514;10.482;2022-09-27T07:39:48;51.20;;;40.23;;
23682;SDS011;24897;53.514;10.482;2022-09-27T07:42:32;50.57;;;39.23;;
23682;SDS011;24897;53.514;10.482;2022-09-27T07:45:16;47.07;;;39.23;;
23682;SDS011;24897;53.514;10.482;2022-09-27T07:48:03;49.40;;;39.77;;
23682;SDS011;24897;53.514;10.482;2022-09-27T07:50:49;47.90;;;38.30;;
23682;SDS011;24897;53.514;10.482;2022-09-27T07:53:33;44.33;;;36.70;;
23682;SDS011;24897;53.514;10.482;2022-09-27T07:56:21;41.90;;;35.97;;
23682;SDS011;24897;53.514;10.482;2022-09-27T07:59:04;44.67;;;34.97;;
23682;SDS011;24897;53.514;10.482;2022-09-27T08:01:49;43.33;;;35.10;;
23682;SDS011;24897;53.514;10.482;2022-09-27T08:04:33;40.87;;;33.47;;
23682;SDS011;24897;53.514;10.482;2022-09-27T08:07:18;42.13;;;34.00;;
23682;SDS011;24897;53.514;10.482;2022-09-27T08:10:02;40.40;;;34.70;;
23682;SDS011;24897;53.514;10.482;2022-09-27T08:12:47;38.63;;;33.37;;
23682;SDS011;24897;53.514;10.482;2022-09-27T08:15:32;37.97;;;32.73;;
23682;SDS011;24897;53.514;10.482;2022-09-27T08:18:18;37.77;;;31.67;;
23682;SDS011;24897;53.514;10.482;2022-09-27T08:21:04;37.63;;;31.63;;
23682;SDS011;24897;53.514;10.482;2022-09-27T08:23:48;40.63;;;35.17;;
23682;SDS011;24897;53.514;10.482;2022-09-27T08:26:32;36.70;;;32.67;;
23682;SDS011;24897;53.514;10.482;2022-09-27T08:29:17;34.73;;;30.27;;
23682;SDS011;24897;53.514;10.482;2022-09-27T08:32:01;35.03;;;30.67;;
23682;SDS011;24897;53.514;10.482;2022-09-27T08:34:45;104.27;;;67.67;;
23682;SDS011;24897;53.514;10.482;2022-09-27T08:37:30;51.30;;;42.30;;
23682;SDS011;24897;53.514;10.482;2022-09-27T08:40:15;35.77;;;30.77;;
23682;SDS011;24897;53.514;10.482;2022-09-27T08:43:04;34.07;;;30.23;;
23682;SDS011;24897;53.514;10.482;2022-09-27T08:49:25;32.70;;;29.20;;
23682;SDS011;24897;53.514;10.482;2022-09-27T08:52:30;33.87;;;30.27;;
23682;SDS011;24897;53.514;10.482;2022-09-27T08:55:25;31.83;;;28.43;;
23682;SDS011;24897;53.514;10.482;2022-09-27T09:01:14;34.03;;;30.37;;
23682;SDS011;24897;53.514;10.482;2022-09-27T09:03:59;35.17;;;31.57;;
23682;SDS011;24897;53.514;10.482;2022-09-27T09:10:10;33.80;;;30.20;;
23682;SDS011;24897;53.514;10.482;2022-09-27T09:14:12;35.43;;;31.63;;
23682;SDS011;24897;53.514;10.482;2022-09-27T09:17:11;35.10;;;31.40;;
23682;SDS011;24897;53.514;10.482;2022-09-27T09:30:11;32.67;;;29.13;;
23682;SDS011;24897;53.514;10.482;2022-09-27T09:39:13;33.07;;;29.60;;
23682;SDS011;24897;53.514;10.482;2022-09-27T09:42:28;33.00;;;29.40;;
23682;SDS011;24897;53.514;10.482;2022-09-27T09:51:15;30.80;;;27.53;;
23682;SDS011;24897;53.514;10.482;2022-09-27T09:54:13;35.13;;;31.33;;
23682;SDS011;24897;53.514;10.482;2022-09-27T09:59:58;33.53;;;29.67;;
23682;SDS011;24897;53.514;10.482;2022-09-27T10:02:45;30.47;;;26.70;;
23682;SDS011;24897;53.514;10.482;2022-09-27T10:05:31;32.43;;;28.90;;
23682;SDS011;24897;53.514;10.482;2022-09-27T10:08:20;29.50;;;26.40;;
23682;SDS011;24897;53.514;10.482;2022-09-27T10:11:08;31.50;;;28.17;;
23682;SDS011;24897;53.514;10.482;2022-09-27T10:14:02;30.63;;;27.53;;
23682;SDS011;24897;53.514;10.482;2022-09-27T10:16:48;29.80;;;26.70;;
23682;SDS011;24897;53.514;10.482;2022-09-27T10:19:38;29.80;;;26.70;;
23682;SDS011;24897;53.514;10.482;2022-09-27T10:22:24;29.47;;;26.37;;
23682;SDS011;24897;53.514;10.482;2022-09-27T10:25:15;29.20;;;26.20;;
23682;SDS011;24897;53.514;10.482;2022-09-27T10:28:00;29.70;;;26.67;;
23682;SDS011;24897;53.514;10.482;2022-09-27T10:30:45;28.23;;;25.33;;
23682;SDS011;24897;53.514;10.482;2022-09-27T10:33:59;29.27;;;26.17;;
23682;SDS011;24897;53.514;10.482;2022-09-27T10:37:00;29.70;;;26.63;;
23682;SDS011;24897;53.514;10.482;2022-09-27T10:39:50;28.00;;;25.00;;
23682;SDS011;24897;53.514;10.482;2022-09-27T10:42:36;26.43;;;23.63;;
23682;SDS011;24897;53.514;10.482;2022-09-27T10:45:26;27.47;;;24.57;;
23682;SDS011;24897;53.514;10.482;2022-09-27T10:48:18;31.53;;;27.27;;
23682;SDS011;24897;53.514;10.482;2022-09-27T10:51:07;28.77;;;25.87;;
23682;SDS011;24897;53.514;10.482;2022-09-27T10:54:03;27.27;;;24.57;;
23682;SDS011;24897;53.514;10.482;2022-09-27T10:56:58;28.23;;;25.30;;
23682;SDS011;24897;53.514;10.482;2022-09-27T10:59:49;29.43;;;26.40;;
23682;SDS011;24897;53.514;10.482;2022-09-27T11:02:39;27.10;;;24.43;;
23682;SDS011;24897;53.514;10.482;2022-09-27T11:05:31;27.87;;;24.97;;
23682;SDS011;24897;53.514;10.482;2022-09-27T11:11:17;26.70;;;23.90;;
23682;SDS011;24897;53.514;10.482;2022-09-27T11:14:04;26.50;;;23.80;;
23682;SDS011;24897;53.514;10.482;2022-09-27T11:20:02;30.17;;;27.03;;
23682;SDS011;24897;53.514;10.482;2022-09-27T11:23:15;27.47;;;24.63;;
23682;SDS011;24897;53.514;10.482;2022-09-27T11:26:20;28.23;;;25.33;;
23682;SDS011;24897;53.514;10.482;2022-09-27T11:41:42;26.33;;;23.63;;
23682;SDS011;24897;53.514;10.482;2022-09-27T12:00:29;25.47;;;22.97;;
23682;SDS011;24897;53.514;10.482;2022-09-27T12:09:21;25.60;;;23.20;;
23682;SDS011;24897;53.514;10.482;2022-09-27T12:12:17;25.03;;;22.67;;
23682;SDS011;24897;53.514;10.482;2022-09-27T12:15:05;24.50;;;22.20;;
23682;SDS011;24897;53.514;10.482;2022-09-27T12:18:08;25.37;;;23.07;;
23682;SDS011;24897;53.514;10.482;2022-09-27T12:20:58;26.10;;;23.50;;
23682;SDS011;24897;53.514;10.482;2022-09-27T12:23:49;26.17;;;23.47;;
23682;SDS011;24897;53.514;10.482;2022-09-27T12:26:41;25.40;;;23.00;;
23682;SDS011;24897;53.514;10.482;2022-09-27T12:29:28;25.33;;;22.93;;
23682;SDS011;24897;53.514;10.482;2022-09-27T12:32:25;25.23;;;22.83;;
23682;SDS011;24897;53.514;10.482;2022-09-27T12:35:53;26.10;;;23.40;;
23682;SDS011;24897;53.514;10.482;2022-09-27T12:38:36;30.23;;;27.13;;
23682;SDS011;24897;53.514;10.482;2022-09-27T12:41:25;25.83;;;23.33;;
23682;SDS011;24897;53.514;10.482;2022-09-27T12:44:14;26.63;;;24.03;;
23682;SDS011;24897;53.514;10.482;2022-09-27T12:53:00;27.53;;;24.87;;
23682;SDS011;24897;53.514;10.482;2022-09-27T12:56:01;27.13;;;24.47;;
23682;SDS011;24897;53.514;10.482;2022-09-27T13:14:26;27.43;;;25.03;;
23682;SDS011;24897;53.514;10.482;2022-09-27T13:26:23;25.73;;;23.53;;
23682;SDS011;24897;53.514;10.482;2022-09-27T13:29:27;25.80;;;23.40;;
23682;SDS011;24897;53.514;10.482;2022-09-27T13:32:14;25.40;;;23.20;;
23682;SDS011;24897;53.514;10.482;2022-09-27T13:35:09;26.37;;;24.00;;
23682;SDS011;24897;53.514;10.482;2022-09-27T13:38:20;25.87;;;23.57;;
23682;SDS011;24897;53.514;10.482;2022-09-27T13:41:16;26.03;;;23.83;;
23682;SDS011;24897;53.514;10.482;2022-09-27T13:50:01;25.17;;;22.93;;
23682;SDS011;24897;53.514;10.482;2022-09-27T13:53:04;26.63;;;24.33;;
23682;SDS011;24897;53.514;10.482;2022-09-27T13:55:51;25.87;;;23.57;;
23682;SDS011;24897;53.514;10.482;2022-09-27T13:58:47;27.07;;;24.57;;
23682;SDS011;24897;53.514;10.482;2022-09-27T14:01:48;27.63;;;25.13;;
23682;SDS011;24897;53.514;10.482;2022-09-27T14:04:39;26.50;;;24.00;;
23682;SDS011;24897;53.514;10.482;2022-09-27T14:07:41;25.50;;;23.20;;
23682;SDS011;24897;53.514;10.482;2022-09-27T14:10:26;24.57;;;22.20;;
23682;SDS011;24897;53.514;10.482;2022-09-27T14:13:10;25.60;;;23.20;;
23682;SDS011;24897;53.514;10.482;2022-09-27T14:16:02;27.10;;;24.50;;
23682;SDS011;24897;53.514;10.482;2022-09-27T14:18:52;25.73;;;23.10;;
23682;SDS011;24897;53.514;10.482;2022-09-27T14:21:40;25.53;;;23.23;;
23682;SDS011;24897;53.514;10.482;2022-09-27T14:27:14;24.70;;;22.50;;
23682;SDS011;24897;53.514;10.482;2022-09-27T14:30:16;25.40;;;23.00;;
23682;SDS011;24897;53.514;10.482;2022-09-27T14:33:02;24.27;;;22.07;;
23682;SDS011;24897;53.514;10.482;2022-09-27T14:35:47;24.53;;;22.23;;
23682;SDS011;24897;53.514;10.482;2022-09-27T14:38:51;25.33;;;23.03;;
23682;SDS011;24897;53.514;10.482;2022-09-27T14:41:35;28.13;;;25.43;;
23682;SDS011;24897;53.514;10.482;2022-09-27T14:44:21;29.07;;;26.13;;
23682;SDS011;24897;53.514;10.482;2022-09-27T14:47:22;33.23;;;29.73;;
23682;SDS011;24897;53.514;10.482;2022-09-27T14:53:19;25.37;;;23.07;;
23682;SDS011;24897;53.514;10.482;2022-09-27T14:56:10;25.27;;;22.97;;
23682;SDS011;24897;53.514;10.482;2022-09-27T14:59:15;25.43;;;23.10;;
23682;SDS011;24897;53.514;10.482;2022-09-27T15:02:14;26.43;;;23.97;;
23682;SDS011;24897;53.514;10.482;2022-09-27T15:05:02;26.67;;;24.17;;
23682;SDS011;24897;53.514;10.482;2022-09-27T15:07:48;24.23;;;22.03;;
23682;SDS011;24897;53.514;10.482;2022-09-27T15:10:34;24.43;;;22.13;;
23682;SDS011;24897;53.514;10.482;2022-09-27T15:13:20;24.77;;;22.37;;
23682;SDS011;24897;53.514;10.482;2022-09-27T15:16:11;25.17;;;22.77;;
23682;SDS011;24897;53.514;10.482;2022-09-27T15:19:01;25.17;;;22.67;;
23682;SDS011;24897;53.514;10.482;2022-09-27T15:21:49;24.37;;;21.97;;
23682;SDS011;24897;53.514;10.482;2022-09-27T15:24:34;24.30;;;21.90;;
23682;SDS011;24897;53.514;10.482;2022-09-27T15:27:23;24.80;;;22.30;;
23682;SDS011;24897;53.514;10.482;2022-09-27T15:30:15;27.00;;;24.23;;
23682;SDS011;24897;53.514;10.482;2022-09-27T15:33:01;26.80;;;24.30;;
23682;SDS011;24897;53.514;10.482;2022-09-27T15:35:53;26.10;;;23.60;;
23682;SDS011;24897;53.514;10.482;2022-09-27T15:38:43;29.17;;;26.40;;
23682;SDS011;24897;53.514;10.482;2022-09-27T15:41:31;31.60;;;28.37;;
23682;SDS011;24897;53.514;10.482;2022-09-27T15:44:51;28.27;;;25.57;;
23682;SDS011;24897;53.514;10.482;2022-09-27T15:47:41;29.57;;;26.47;;
23682;SDS011;24897;53.514;10.482;2022-09-27T15:50:31;32.73;;;29.27;;
23682;SDS011;24897;53.514;10.482;2022-09-27T15:56:19;30.77;;;27.63;;
23682;SDS011;24897;53.514;10.482;2022-09-27T15:59:04;32.50;;;29.10;;
23682;SDS011;24897;53.514;10.482;2022-09-27T16:01:51;31.87;;;28.57;;
23682;SDS011;24897;53.514;10.482;2022-09-27T16:04:38;33.97;;;30.37;;
23682;SDS011;24897;53.514;10.482;2022-09-27T16:07:22;34.90;;;31.30;;
23682;SDS011;24897;53.514;10.482;2022-09-27T16:12:59;33.93;;;30.23;;
23682;SDS011;24897;53.514;10.482;2022-09-27T16:15:44;34.97;;;30.47;;
23682;SDS011;24897;53.514;10.482;2022-09-27T16:18:29;36.40;;;32.60;;
23682;SDS011;24897;53.514;10.482;2022-09-27T16:21:15;33.40;;;29.90;;
23682;SDS011;24897;53.514;10.482;2022-09-27T16:24:00;34.97;;;29.50;;
23682;SDS011;24897;53.514;10.482;2022-09-27T16:26:46;32.10;;;28.70;;
23682;SDS011;24897;53.514;10.482;2022-09-27T16:29:30;34.60;;;31.03;;
23682;SDS011;24897;53.514;10.482;2022-09-27T16:32:14;32.07;;;28.80;;
23682;SDS011;24897;53.514;10.482;2022-09-27T16:34:58;33.67;;;30.17;;
23682;SDS011;24897;53.514;10.482;2022-09-27T16:37:43;31.07;;;27.67;;
23682;SDS011;24897;53.514;10.482;2022-09-27T16:40:28;32.43;;;28.93;;
23682;SDS011;24897;53.514;10.482;2022-09-27T16:43:13;30.77;;;27.77;;
23682;SDS011;24897;53.514;10.482;2022-09-27T16:46:04;29.57;;;26.53;;
23682;SDS011;24897;53.514;10.482;2022-09-27T16:48:51;26.87;;;24.10;;
23682;SDS011;24897;53.514;10.482;2022-09-27T16:51:35;33.47;;;29.07;;
23682;SDS011;24897;53.514;10.482;2022-09-27T16:54:38;30.17;;;26.90;;
23682;SDS011;24897;53.514;10.482;2022-09-27T16:57:22;29.37;;;25.37;;
23682;SDS011;24897;53.514;10.482;2022-09-27T17:00:07;28.07;;;25.17;;
23682;SDS011;24897;53.514;10.482;2022-09-27T17:02:52;27.60;;;24.70;;
23682;SDS011;24897;53.514;10.482;2022-09-27T17:05:37;26.93;;;24.23;;
23682;SDS011;24897;53.514;10.482;2022-09-27T17:08:24;31.70;;;28.40;;
23682;SDS011;24897;53.514;10.482;2022-09-27T17:11:13;26.77;;;24.07;;
23682;SDS011;24897;53.514;10.482;2022-09-27T17:13:58;25.60;;;23.00;;
23682;SDS011;24897;53.514;10.482;2022-09-27T17:16:43;27.90;;;23.33;;
23682;SDS011;24897;53.514;10.482;2022-09-27T17:19:28;27.17;;;24.27;;
23682;SDS011;24897;53.514;10.482;2022-09-27T17:22:12;26.90;;;23.17;;
23682;SDS011;24897;53.514;10.482;2022-09-27T17:24:56;28.03;;;23.53;;
23682;SDS011;24897;53.514;10.482;2022-09-27T17:27:41;31.43;;;28.23;;
23682;SDS011;24897;53.514;10.482;2022-09-27T17:30:25;32.67;;;28.77;;
23682;SDS011;24897;53.514;10.482;2022-09-27T17:33:09;29.77;;;26.60;;
23682;SDS011;24897;53.514;10.482;2022-09-27T17:35:57;25.20;;;22.07;;
23682;SDS011;24897;53.514;10.482;2022-09-27T17:38:43;24.37;;;21.87;;
23682;SDS011;24897;53.514;10.482;2022-09-27T17:41:28;24.80;;;22.30;;
23682;SDS011;24897;53.514;10.482;2022-09-27T17:44:14;25.47;;;22.83;;
23682;SDS011;24897;53.514;10.482;2022-09-27T17:47:00;27.03;;;24.17;;
23682;SDS011;24897;53.514;10.482;2022-09-27T17:50:04;26.70;;;23.90;;
23682;SDS011;24897;53.514;10.482;2022-09-27T17:53:08;29.63;;;26.43;;
23682;SDS011;24897;53.514;10.482;2022-09-27T17:55:58;27.53;;;24.53;;
23682;SDS011;24897;53.514;10.482;2022-09-27T17:58:44;29.10;;;24.83;;
23682;SDS011;24897;53.514;10.482;2022-09-27T18:01:30;27.30;;;24.50;;
23682;SDS011;24897;53.514;10.482;2022-09-27T18:04:16;27.90;;;25.07;;
23682;SDS011;24897;53.514;10.482;2022-09-27T18:07:02;30.43;;;27.13;;
23682;SDS011;24897;53.514;10.482;2022-09-27T18:09:46;28.90;;;25.90;;
23682;SDS011;24897;53.514;10.482;2022-09-27T18:12:32;28.67;;;25.17;;
23682;SDS011;24897;53.514;10.482;2022-09-27T18:15:17;26.77;;;24.07;;
23682;SDS011;24897;53.514;10.482;2022-09-27T18:18:02;32.07;;;28.67;;
23682;SDS011;24897;53.514;10.482;2022-09-27T18:20:48;27.00;;;24.20;;
23682;SDS011;24897;53.514;10.482;2022-09-27T18:23:32;27.60;;;24.50;;
23682;SDS011;24897;53.514;10.482;2022-09-27T18:26:16;30.07;;;26.87;;
23682;SDS011;24897;53.514;10.482;2022-09-27T18:29:09;41.30;;;33.30;;
23682;SDS011;24897;53.514;10.482;2022-09-27T18:31:55;34.60;;;30.77;;
23682;SDS011;24897;53.514;10.482;2022-09-27T18:34:39;29.60;;;26.50;;
23682;SDS011;24897;53.514;10.482;2022-09-27T18:37:28;30.30;;;27.10;;
23682;SDS011;24897;53.514;10.482;2022-09-27T18:40:12;31.67;;;28.27;;
23682;SDS011;24897;53.514;10.482;2022-09-27T18:42:57;33.30;;;29.70;;
23682;SDS011;24897;53.514;10.482;2022-09-27T18:45:41;35.40;;;30.13;;
23682;SDS011;24897;53.514;10.482;2022-09-27T18:48:25;30.43;;;26.60;;
23682;SDS011;24897;53.514;10.482;2022-09-27T18:51:11;33.77;;;27.20;;